sensor_id;sensor_type;location;lat;lon;timestamp;temperature;humidity
1476;DHT22;730;48.870;12.542;2023-02-26T00:01:21;1.40;1.00
1476;DHT22;730;48.870;12.542;2023-02-26T00:03:52;1.40;1.00
1476;DHT22;730;48.870;12.542;2023-02-26T00:06:19;1.50;1.00
1476;DHT22;730;48.870;12.542;2023-02-26T00:08:45;1.50;1.00
1476;DHT22;730;48.870;12.542;2023-02-26T00:11:12;1.50;1.00
1476;DHT22;730;48.870;12.542;2023-02-26T00:13:41;1.50;1.00
1476;DHT22;730;48.870;12.542;2023-02-26T00:16:32;1.40;1.00
1476;DHT22;730;48.870;12.542;2023-02-26T00:19:03;1.40;1.00
1476;DHT22;730;48.870;12.542;2023-02-26T00:21:31;1.40;1.00
1476;DHT22;730;48.870;12.542;2023-02-26T00:23:57;1.40;1.00
1476;DHT22;730;48.870;12.542;2023-02-26T00:26:25;1.30;1.00
1476;DHT22;730;48.870;12.542;2023-02-26T00:28:54;1.30;1.00
1476;DHT22;730;48.870;12.542;2023-02-26T00:31:21;1.20;1.00
1476;DHT22;730;48.870;12.542;2023-02-26T00:33:53;1.10;1.00
1476;DHT22;730;48.870;12.542;2023-02-26T00:36:34;1.10;1.00
1476;DHT22;730;48.870;12.542;2023-02-26T00:39:17;1.00;1.00
1476;DHT22;730;48.870;12.542;2023-02-26T00:41:47;1.00;1.00
1476;DHT22;730;48.870;12.542;2023-02-26T00:44:13;1.00;1.00
1476;DHT22;730;48.870;12.542;2023-02-26T00:46:58;0.80;1.00
1476;DHT22;730;48.870;12.542;2023-02-26T00:54:58;0.80;1.00
1476;DHT22;730;48.870;12.542;2023-02-26T00:57:24;0.80;1.00
1476;DHT22;730;48.870;12.542;2023-02-26T00:59:50;0.80;1.00
1476;DHT22;730;48.870;12.542;2023-02-26T01:02:16;0.70;1.00
1476;DHT22;730;48.870;12.542;2023-02-26T01:04:43;0.70;1.00
1476;DHT22;730;48.870;12.542;2023-02-26T01:07:09;0.60;1.00
1476;DHT22;730;48.870;12.542;2023-02-26T01:09:36;0.70;1.00
1476;DHT22;730;48.870;12.542;2023-02-26T01:12:06;0.60;1.00
1476;DHT22;730;48.870;12.542;2023-02-26T01:14:33;0.60;1.00
1476;DHT22;730;48.870;12.542;2023-02-26T01:17:01;0.60;1.00
1476;DHT22;730;48.870;12.542;2023-02-26T01:19:54;0.60;1.00
1476;DHT22;730;48.870;12.542;2023-02-26T01:22:34;0.60;1.00
1476;DHT22;730;48.870;12.542;2023-02-26T01:25:07;0.60;1.00
1476;DHT22;730;48.870;12.542;2023-02-26T01:27:34;0.60;1.00
1476;DHT22;730;48.870;12.542;2023-02-26T01:30:02;0.60;1.00
1476;DHT22;730;48.870;12.542;2023-02-26T01:33:31;0.60;1.00
1476;DHT22;730;48.870;12.542;2023-02-26T01:35:50;0.60;1.00
1476;DHT22;730;48.870;12.542;2023-02-26T01:48:50;0.60;1.00
1476;DHT22;730;48.870;12.542;2023-02-26T01:51:18;0.50;1.00
1476;DHT22;730;48.870;12.542;2023-02-26T01:53:44;0.50;1.00
1476;DHT22;730;48.870;12.542;2023-02-26T01:56:20;0.50;1.00
1476;DHT22;730;48.870;12.542;2023-02-26T01:58:47;0.40;1.00
1476;DHT22;730;48.870;12.542;2023-02-26T02:01:14;0.40;1.00
1476;DHT22;730;48.870;12.542;2023-02-26T02:03:41;0.40;1.00
1476;DHT22;730;48.870;12.542;2023-02-26T02:06:14;0.40;1.00
1476;DHT22;730;48.870;12.542;2023-02-26T02:08:41;0.40;1.00
1476;DHT22;730;48.870;12.542;2023-02-26T02:11:09;0.30;1.00
1476;DHT22;730;48.870;12.542;2023-02-26T02:22:28;0.30;1.00
1476;DHT22;730;48.870;12.542;2023-02-26T02:32:54;0.20;1.00
1476;DHT22;730;48.870;12.542;2023-02-26T02:35:27;0.10;1.00
1476;DHT22;730;48.870;12.542;2023-02-26T02:40:36;0.10;1.00
1476;DHT22;730;48.870;12.542;2023-02-26T02:43:17;0.10;1.00
1476;DHT22;730;48.870;12.542;2023-02-26T02:46:05;0.10;1.00
1476;DHT22;730;48.870;12.542;2023-02-26T02:48:35;0.10;1.00
1476;DHT22;730;48.870;12.542;2023-02-26T02:51:07;0.10;1.00
1476;DHT22;730;48.870;12.542;2023-02-26T02:53:43;0.10;1.00
1476;DHT22;730;48.870;12.542;2023-02-26T02:56:16;0.10;1.00
1476;DHT22;730;48.870;12.542;2023-02-26T02:58:53;0.10;1.00
1476;DHT22;730;48.870;12.542;2023-02-26T03:01:21;0.00;1.00
1476;DHT22;730;48.870;12.542;2023-02-26T03:03:56;0.00;1.00
1476;DHT22;730;48.870;12.542;2023-02-26T03:06:26;0.00;1.00
1476;DHT22;730;48.870;12.542;2023-02-26T03:08:53;0.00;1.00
1476;DHT22;730;48.870;12.542;2023-02-26T03:11:19;0.00;1.00
1476;DHT22;730;48.870;12.542;2023-02-26T03:13:47;0.10;1.00
1476;DHT22;730;48.870;12.542;2023-02-26T03:16:39;0.00;1.00
1476;DHT22;730;48.870;12.542;2023-02-26T03:19:22;0.10;1.00
1476;DHT22;730;48.870;12.542;2023-02-26T03:22:12;0.10;1.00
1476;DHT22;730;48.870;12.542;2023-02-26T03:24:49;0.10;1.00
1476;DHT22;730;48.870;12.542;2023-02-26T03:27:25;0.10;1.00
1476;DHT22;730;48.870;12.542;2023-02-26T03:35:54;0.20;1.00
1476;DHT22;730;48.870;12.542;2023-02-26T03:38:27;0.30;1.00
1476;DHT22;730;48.870;12.542;2023-02-26T03:41:13;0.30;1.00
1476;DHT22;730;48.870;12.542;2023-02-26T03:46:32;0.30;1.00
1476;DHT22;730;48.870;12.542;2023-02-26T03:49:06;0.40;1.00
1476;DHT22;730;48.870;12.542;2023-02-26T03:51:32;0.40;1.00
1476;DHT22;730;48.870;12.542;2023-02-26T03:54:24;0.40;1.00
1476;DHT22;730;48.870;12.542;2023-02-26T03:56:52;0.40;1.00
1476;DHT22;730;48.870;12.542;2023-02-26T03:59:18;0.40;1.00
1476;DHT22;730;48.870;12.542;2023-02-26T04:04:31;0.40;1.00
1476;DHT22;730;48.870;12.542;2023-02-26T04:06:58;0.30;1.00
1476;DHT22;730;48.870;12.542;2023-02-26T04:09:25;0.30;1.00
1476;DHT22;730;48.870;12.542;2023-02-26T04:11:55;0.30;1.00
1476;DHT22;730;48.870;12.542;2023-02-26T04:14:27;0.30;1.00
1476;DHT22;730;48.870;12.542;2023-02-26T04:16:55;0.30;1.00
1476;DHT22;730;48.870;12.542;2023-02-26T04:19:22;0.30;1.00
1476;DHT22;730;48.870;12.542;2023-02-26T04:21:49;0.30;1.00
1476;DHT22;730;48.870;12.542;2023-02-26T04:24:16;0.30;1.00
1476;DHT22;730;48.870;12.542;2023-02-26T04:26:45;0.30;1.00
1476;DHT22;730;48.870;12.542;2023-02-26T04:29:11;0.30;1.00
1476;DHT22;730;48.870;12.542;2023-02-26T04:31:37;0.40;1.00
1476;DHT22;730;48.870;12.542;2023-02-26T04:34:04;0.40;1.00
1476;DHT22;730;48.870;12.542;2023-02-26T04:36:30;0.40;1.00
1476;DHT22;730;48.870;12.542;2023-02-26T04:38:56;0.40;1.00
1476;DHT22;730;48.870;12.542;2023-02-26T04:41:22;0.50;1.00
1476;DHT22;730;48.870;12.542;2023-02-26T04:43:48;0.50;1.00
1476;DHT22;730;48.870;12.542;2023-02-26T04:46:14;0.40;1.00
1476;DHT22;730;48.870;12.542;2023-02-26T04:48:40;0.40;1.00
1476;DHT22;730;48.870;12.542;2023-02-26T04:51:06;0.40;1.00
1476;DHT22;730;48.870;12.542;2023-02-26T04:53:32;0.40;1.00
1476;DHT22;730;48.870;12.542;2023-02-26T04:55:58;0.40;1.00
1476;DHT22;730;48.870;12.542;2023-02-26T04:58:24;0.30;1.00
1476;DHT22;730;48.870;12.542;2023-02-26T05:00:51;0.20;1.00
1476;DHT22;730;48.870;12.542;2023-02-26T05:03:18;0.30;1.00
1476;DHT22;730;48.870;12.542;2023-02-26T05:05:45;0.30;1.00
1476;DHT22;730;48.870;12.542;2023-02-26T05:08:11;0.20;1.00
1476;DHT22;730;48.870;12.542;2023-02-26T05:10:37;0.20;1.00
1476;DHT22;730;48.870;12.542;2023-02-26T05:13:03;0.20;1.00
1476;DHT22;730;48.870;12.542;2023-02-26T05:15:30;0.20;1.00
1476;DHT22;730;48.870;12.542;2023-02-26T05:17:56;0.20;1.00
1476;DHT22;730;48.870;12.542;2023-02-26T05:20:22;0.20;1.00
1476;DHT22;730;48.870;12.542;2023-02-26T05:22:48;0.30;1.00
1476;DHT22;730;48.870;12.542;2023-02-26T05:25:14;0.10;1.00
1476;DHT22;730;48.870;12.542;2023-02-26T05:27:42;0.10;1.00
1476;DHT22;730;48.870;12.542;2023-02-26T05:30:10;0.10;1.00
1476;DHT22;730;48.870;12.542;2023-02-26T05:32:37;0.20;1.00
1476;DHT22;730;48.870;12.542;2023-02-26T05:35:09;0.20;1.00
1476;DHT22;730;48.870;12.542;2023-02-26T05:37:36;0.20;1.00
1476;DHT22;730;48.870;12.542;2023-02-26T05:40:04;0.20;1.00
1476;DHT22;730;48.870;12.542;2023-02-26T05:42:31;0.20;1.00
1476;DHT22;730;48.870;12.542;2023-02-26T05:44:57;0.20;1.00
1476;DHT22;730;48.870;12.542;2023-02-26T05:47:23;0.20;1.00
1476;DHT22;730;48.870;12.542;2023-02-26T05:49:50;0.30;1.00
1476;DHT22;730;48.870;12.542;2023-02-26T05:52:16;0.30;1.00
1476;DHT22;730;48.870;12.542;2023-02-26T05:54:42;0.30;1.00
1476;DHT22;730;48.870;12.542;2023-02-26T05:57:08;0.40;1.00
1476;DHT22;730;48.870;12.542;2023-02-26T05:59:34;0.40;1.00
1476;DHT22;730;48.870;12.542;2023-02-26T06:02:00;0.40;1.00
1476;DHT22;730;48.870;12.542;2023-02-26T06:04:26;0.40;1.00
1476;DHT22;730;48.870;12.542;2023-02-26T06:06:52;0.40;1.00
1476;DHT22;730;48.870;12.542;2023-02-26T06:09:18;0.40;1.00
1476;DHT22;730;48.870;12.542;2023-02-26T06:11:45;0.40;1.00
1476;DHT22;730;48.870;12.542;2023-02-26T06:14:11;0.30;1.00
1476;DHT22;730;48.870;12.542;2023-02-26T06:16:37;0.30;1.00
1476;DHT22;730;48.870;12.542;2023-02-26T06:19:03;0.30;1.00
1476;DHT22;730;48.870;12.542;2023-02-26T06:21:29;0.40;1.00
1476;DHT22;730;48.870;12.542;2023-02-26T06:23:55;0.40;1.00
1476;DHT22;730;48.870;12.542;2023-02-26T06:26:21;0.50;1.00
1476;DHT22;730;48.870;12.542;2023-02-26T06:28:50;0.50;1.00
1476;DHT22;730;48.870;12.542;2023-02-26T06:31:16;0.50;1.00
1476;DHT22;730;48.870;12.542;2023-02-26T06:33:42;0.50;1.00
1476;DHT22;730;48.870;12.542;2023-02-26T06:36:08;0.50;1.00
1476;DHT22;730;48.870;12.542;2023-02-26T06:38:34;0.50;1.00
1476;DHT22;730;48.870;12.542;2023-02-26T06:41:00;0.50;1.00
1476;DHT22;730;48.870;12.542;2023-02-26T06:43:26;0.50;1.00
1476;DHT22;730;48.870;12.542;2023-02-26T06:45:56;0.50;1.00
1476;DHT22;730;48.870;12.542;2023-02-26T06:48:22;0.40;1.00
1476;DHT22;730;48.870;12.542;2023-02-26T06:50:48;0.40;1.00
1476;DHT22;730;48.870;12.542;2023-02-26T06:53:14;0.40;1.00
1476;DHT22;730;48.870;12.542;2023-02-26T06:55:45;0.40;1.00
1476;DHT22;730;48.870;12.542;2023-02-26T06:58:12;0.40;1.00
1476;DHT22;730;48.870;12.542;2023-02-26T07:00:38;0.50;1.00
1476;DHT22;730;48.870;12.542;2023-02-26T07:03:09;0.50;1.00
1476;DHT22;730;48.870;12.542;2023-02-26T07:05:36;0.60;1.00
1476;DHT22;730;48.870;12.542;2023-02-26T07:08:03;0.70;1.00
1476;DHT22;730;48.870;12.542;2023-02-26T07:10:32;0.70;1.00
1476;DHT22;730;48.870;12.542;2023-02-26T07:12:58;0.80;1.00
1476;DHT22;730;48.870;12.542;2023-02-26T07:15:24;0.80;1.00
1476;DHT22;730;48.870;12.542;2023-02-26T07:17:50;0.90;1.00
1476;DHT22;730;48.870;12.542;2023-02-26T07:20:16;0.90;1.00
1476;DHT22;730;48.870;12.542;2023-02-26T07:22:43;1.00;1.00
1476;DHT22;730;48.870;12.542;2023-02-26T07:25:11;1.00;1.00
1476;DHT22;730;48.870;12.542;2023-02-26T07:27:37;1.00;1.00
1476;DHT22;730;48.870;12.542;2023-02-26T07:30:04;1.00;1.00
1476;DHT22;730;48.870;12.542;2023-02-26T07:32:31;1.00;1.00
1476;DHT22;730;48.870;12.542;2023-02-26T07:34:57;1.00;1.00
1476;DHT22;730;48.870;12.542;2023-02-26T07:37:24;1.10;1.00
1476;DHT22;730;48.870;12.542;2023-02-26T07:39:50;1.00;1.00
1476;DHT22;730;48.870;12.542;2023-02-26T07:42:25;1.00;1.00
1476;DHT22;730;48.870;12.542;2023-02-26T07:44:51;1.10;1.00
1476;DHT22;730;48.870;12.542;2023-02-26T07:47:17;1.10;1.00
1476;DHT22;730;48.870;12.542;2023-02-26T07:49:43;1.10;1.00
1476;DHT22;730;48.870;12.542;2023-02-26T07:52:09;1.20;1.00
1476;DHT22;730;48.870;12.542;2023-02-26T07:54:37;1.20;1.00
1476;DHT22;730;48.870;12.542;2023-02-26T07:57:06;1.30;1.00
1476;DHT22;730;48.870;12.542;2023-02-26T07:59:32;1.40;1.00
1476;DHT22;730;48.870;12.542;2023-02-26T08:01:58;1.40;1.00
1476;DHT22;730;48.870;12.542;2023-02-26T08:04:24;1.50;1.00
1476;DHT22;730;48.870;12.542;2023-02-26T08:06:50;1.60;1.00
1476;DHT22;730;48.870;12.542;2023-02-26T08:09:20;1.70;1.00
1476;DHT22;730;48.870;12.542;2023-02-26T08:11:46;1.70;1.00
1476;DHT22;730;48.870;12.542;2023-02-26T08:14:12;1.70;1.00
1476;DHT22;730;48.870;12.542;2023-02-26T08:16:39;1.80;1.00
1476;DHT22;730;48.870;12.542;2023-02-26T08:19:08;1.80;1.00
1476;DHT22;730;48.870;12.542;2023-02-26T08:21:34;1.80;1.00
1476;DHT22;730;48.870;12.542;2023-02-26T08:24:00;1.90;1.00
1476;DHT22;730;48.870;12.542;2023-02-26T08:26:26;1.90;1.00
1476;DHT22;730;48.870;12.542;2023-02-26T08:28:53;2.00;1.00
1476;DHT22;730;48.870;12.542;2023-02-26T08:31:19;2.10;1.00
1476;DHT22;730;48.870;12.542;2023-02-26T08:33:45;2.20;1.00
1476;DHT22;730;48.870;12.542;2023-02-26T08:36:11;2.20;1.00
1476;DHT22;730;48.870;12.542;2023-02-26T08:38:37;2.30;1.00
1476;DHT22;730;48.870;12.542;2023-02-26T08:41:04;2.40;1.00
1476;DHT22;730;48.870;12.542;2023-02-26T08:43:40;2.50;1.00
1476;DHT22;730;48.870;12.542;2023-02-26T08:46:06;2.60;1.00
1476;DHT22;730;48.870;12.542;2023-02-26T08:48:32;2.70;1.00
1476;DHT22;730;48.870;12.542;2023-02-26T08:50:58;2.80;1.00
1476;DHT22;730;48.870;12.542;2023-02-26T08:53:24;2.90;1.00
1476;DHT22;730;48.870;12.542;2023-02-26T08:55:52;2.90;1.00
1476;DHT22;730;48.870;12.542;2023-02-26T08:58:18;3.00;1.00
1476;DHT22;730;48.870;12.542;2023-02-26T09:00:45;3.20;1.00
1476;DHT22;730;48.870;12.542;2023-02-26T09:03:11;3.50;1.00
1476;DHT22;730;48.870;12.542;2023-02-26T09:05:38;3.60;1.00
1476;DHT22;730;48.870;12.542;2023-02-26T09:08:06;3.60;1.00
1476;DHT22;730;48.870;12.542;2023-02-26T09:10:33;3.70;1.00
1476;DHT22;730;48.870;12.542;2023-02-26T09:12:59;3.90;1.00
1476;DHT22;730;48.870;12.542;2023-02-26T09:15:25;3.90;1.00
1476;DHT22;730;48.870;12.542;2023-02-26T09:17:51;3.90;1.00
1476;DHT22;730;48.870;12.542;2023-02-26T09:20:17;3.90;1.00
1476;DHT22;730;48.870;12.542;2023-02-26T09:22:44;4.10;1.00
1476;DHT22;730;48.870;12.542;2023-02-26T09:25:10;4.30;1.00
1476;DHT22;730;48.870;12.542;2023-02-26T09:27:36;4.40;1.00
1476;DHT22;730;48.870;12.542;2023-02-26T09:30:03;4.60;1.00
1476;DHT22;730;48.870;12.542;2023-02-26T09:32:30;4.60;1.00
1476;DHT22;730;48.870;12.542;2023-02-26T09:34:56;4.80;1.00
1476;DHT22;730;48.870;12.542;2023-02-26T09:37:22;4.80;1.00
1476;DHT22;730;48.870;12.542;2023-02-26T09:39:48;4.80;1.00
1476;DHT22;730;48.870;12.542;2023-02-26T09:42:39;4.80;1.00
1476;DHT22;730;48.870;12.542;2023-02-26T09:45:19;4.80;1.00
1476;DHT22;730;48.870;12.542;2023-02-26T09:47:50;4.70;1.00
1476;DHT22;730;48.870;12.542;2023-02-26T09:50:27;4.60;1.00
1476;DHT22;730;48.870;12.542;2023-02-26T09:53:13;4.50;1.00
1476;DHT22;730;48.870;12.542;2023-02-26T09:55:44;4.50;1.00
1476;DHT22;730;48.870;12.542;2023-02-26T09:58:27;4.50;1.00
1476;DHT22;730;48.870;12.542;2023-02-26T10:06:31;4.40;1.00
1476;DHT22;730;48.870;12.542;2023-02-26T10:09:35;4.60;1.00
1476;DHT22;730;48.870;12.542;2023-02-26T10:12:07;4.80;1.00
1476;DHT22;730;48.870;12.542;2023-02-26T10:17:51;4.90;1.00
1476;DHT22;730;48.870;12.542;2023-02-26T10:23:11;5.00;1.00
1476;DHT22;730;48.870;12.542;2023-02-26T10:25:41;5.00;1.00
1476;DHT22;730;48.870;12.542;2023-02-26T10:30:57;5.30;1.00
1476;DHT22;730;48.870;12.542;2023-02-26T10:38:41;5.20;1.00
1476;DHT22;730;48.870;12.542;2023-02-26T10:41:14;5.30;1.00
1476;DHT22;730;48.870;12.542;2023-02-26T10:43:51;5.40;1.00
1476;DHT22;730;48.870;12.542;2023-02-26T10:51:38;5.50;1.00
1476;DHT22;730;48.870;12.542;2023-02-26T10:54:32;5.60;1.00
1476;DHT22;730;48.870;12.542;2023-02-26T10:57:00;5.80;1.00
1476;DHT22;730;48.870;12.542;2023-02-26T10:59:26;6.00;1.00
1476;DHT22;730;48.870;12.542;2023-02-26T11:01:53;5.70;1.00
1476;DHT22;730;48.870;12.542;2023-02-26T11:04:22;5.70;1.00
1476;DHT22;730;48.870;12.542;2023-02-26T11:06:57;5.80;1.00
1476;DHT22;730;48.870;12.542;2023-02-26T11:09:26;5.60;1.00
1476;DHT22;730;48.870;12.542;2023-02-26T11:14:51;5.30;1.00
1476;DHT22;730;48.870;12.542;2023-02-26T11:17:25;5.10;1.00
1476;DHT22;730;48.870;12.542;2023-02-26T11:19:58;5.10;1.00
1476;DHT22;730;48.870;12.542;2023-02-26T11:22:30;5.10;1.00
1476;DHT22;730;48.870;12.542;2023-02-26T11:24:57;5.40;1.00
1476;DHT22;730;48.870;12.542;2023-02-26T11:27:30;5.50;1.00
1476;DHT22;730;48.870;12.542;2023-02-26T11:30:14;5.60;1.00
1476;DHT22;730;48.870;12.542;2023-02-26T11:32:43;5.70;1.00
1476;DHT22;730;48.870;12.542;2023-02-26T11:35:14;5.80;1.00
1476;DHT22;730;48.870;12.542;2023-02-26T11:37:47;5.90;1.00
1476;DHT22;730;48.870;12.542;2023-02-26T11:40:22;6.00;1.00
1476;DHT22;730;48.870;12.542;2023-02-26T11:42:55;6.20;1.00
1476;DHT22;730;48.870;12.542;2023-02-26T11:45:22;6.20;1.00
1476;DHT22;730;48.870;12.542;2023-02-26T11:48:02;6.50;1.00
1476;DHT22;730;48.870;12.542;2023-02-26T11:50:32;6.60;1.00
1476;DHT22;730;48.870;12.542;2023-02-26T11:53:06;6.50;1.00
1476;DHT22;730;48.870;12.542;2023-02-26T11:55:38;6.30;1.00
1476;DHT22;730;48.870;12.542;2023-02-26T11:58:22;6.30;1.00
1476;DHT22;730;48.870;12.542;2023-02-26T12:00:52;6.30;1.00
1476;DHT22;730;48.870;12.542;2023-02-26T12:03:21;6.30;1.00
1476;DHT22;730;48.870;12.542;2023-02-26T12:05:49;6.30;1.00
1476;DHT22;730;48.870;12.542;2023-02-26T12:08:31;6.60;1.00
1476;DHT22;730;48.870;12.542;2023-02-26T12:16:45;7.30;1.00
1476;DHT22;730;48.870;12.542;2023-02-26T12:22:36;7.10;1.00
1476;DHT22;730;48.870;12.542;2023-02-26T12:44:59;6.80;1.00
1476;DHT22;730;48.870;12.542;2023-02-26T12:59:03;7.50;1.00
1476;DHT22;730;48.870;12.542;2023-02-26T13:07:15;7.50;1.00
1476;DHT22;730;48.870;12.542;2023-02-26T13:10:30;7.60;1.00
1476;DHT22;730;48.870;12.542;2023-02-26T13:13:13;7.60;1.00
1476;DHT22;730;48.870;12.542;2023-02-26T13:16:00;7.40;1.00
1476;DHT22;730;48.870;12.542;2023-02-26T13:21:21;7.70;1.00
1476;DHT22;730;48.870;12.542;2023-02-26T13:23:59;7.90;1.00
1476;DHT22;730;48.870;12.542;2023-02-26T13:26:31;8.00;1.00
1476;DHT22;730;48.870;12.542;2023-02-26T13:29:14;8.00;1.00
1476;DHT22;730;48.870;12.542;2023-02-26T13:34:34;8.20;1.00
1476;DHT22;730;48.870;12.542;2023-02-26T13:37:01;8.40;1.00
1476;DHT22;730;48.870;12.542;2023-02-26T13:39:46;8.60;1.00
1476;DHT22;730;48.870;12.542;2023-02-26T13:46:28;9.00;1.00
1476;DHT22;730;48.870;12.542;2023-02-26T13:56:46;9.30;1.00
1476;DHT22;730;48.870;12.542;2023-02-26T14:02:02;9.20;1.00
1476;DHT22;730;48.870;12.542;2023-02-26T14:04:31;9.30;1.00
1476;DHT22;730;48.870;12.542;2023-02-26T14:07:44;9.40;1.00
1476;DHT22;730;48.870;12.542;2023-02-26T14:10:02;9.60;1.00
1476;DHT22;730;48.870;12.542;2023-02-26T14:12:36;9.70;1.00
1476;DHT22;730;48.870;12.542;2023-02-26T14:17:48;9.60;1.00
1476;DHT22;730;48.870;12.542;2023-02-26T14:20:20;8.90;1.00
1476;DHT22;730;48.870;12.542;2023-02-26T14:25:37;7.20;1.00
1476;DHT22;730;48.870;12.542;2023-02-26T14:28:20;6.60;1.00
1476;DHT22;730;48.870;12.542;2023-02-26T14:33:56;5.40;1.00
1476;DHT22;730;48.870;12.542;2023-02-26T14:36:41;5.10;1.00
1476;DHT22;730;48.870;12.542;2023-02-26T14:42:21;5.20;1.00
1476;DHT22;730;48.870;12.542;2023-02-26T14:47:45;5.10;1.00
1476;DHT22;730;48.870;12.542;2023-02-26T14:50:21;4.70;1.00
1476;DHT22;730;48.870;12.542;2023-02-26T15:05:08;4.00;1.00
1476;DHT22;730;48.870;12.542;2023-02-26T15:16:44;3.60;1.00
1476;DHT22;730;48.870;12.542;2023-02-26T15:22:08;3.60;1.00
1476;DHT22;730;48.870;12.542;2023-02-26T15:24:36;3.60;1.00
1476;DHT22;730;48.870;12.542;2023-02-26T15:27:04;3.60;1.00
1476;DHT22;730;48.870;12.542;2023-02-26T15:29:35;3.70;1.00
1476;DHT22;730;48.870;12.542;2023-02-26T15:32:21;3.70;1.00
1476;DHT22;730;48.870;12.542;2023-02-26T15:34:58;3.70;1.00
1476;DHT22;730;48.870;12.542;2023-02-26T15:37:27;3.60;1.00
1476;DHT22;730;48.870;12.542;2023-02-26T15:39:53;3.40;1.00
1476;DHT22;730;48.870;12.542;2023-02-26T15:42:23;3.10;1.00
1476;DHT22;730;48.870;12.542;2023-02-26T15:44:52;3.00;1.00
1476;DHT22;730;48.870;12.542;2023-02-26T15:47:20;3.00;1.00
1476;DHT22;730;48.870;12.542;2023-02-26T15:49:47;3.00;1.00
1476;DHT22;730;48.870;12.542;2023-02-26T15:52:21;2.90;1.00
1476;DHT22;730;48.870;12.542;2023-02-26T15:54:57;2.90;1.00
1476;DHT22;730;48.870;12.542;2023-02-26T15:57:26;2.70;1.00
1476;DHT22;730;48.870;12.542;2023-02-26T16:00:00;2.60;1.00
1476;DHT22;730;48.870;12.542;2023-02-26T16:02:30;2.60;1.00
1476;DHT22;730;48.870;12.542;2023-02-26T16:04:56;2.60;1.00
1476;DHT22;730;48.870;12.542;2023-02-26T16:07:23;2.60;1.00
1476;DHT22;730;48.870;12.542;2023-02-26T16:09:52;2.60;1.00
1476;DHT22;730;48.870;12.542;2023-02-26T16:12:28;2.50;1.00
1476;DHT22;730;48.870;12.542;2023-02-26T16:14:59;2.50;1.00
1476;DHT22;730;48.870;12.542;2023-02-26T16:17:33;2.50;1.00
1476;DHT22;730;48.870;12.542;2023-02-26T16:20:18;2.50;1.00
1476;DHT22;730;48.870;12.542;2023-02-26T16:22:57;2.50;1.00
1476;DHT22;730;48.870;12.542;2023-02-26T16:25:30;2.50;1.00
1476;DHT22;730;48.870;12.542;2023-02-26T16:28:05;2.50;1.00
1476;DHT22;730;48.870;12.542;2023-02-26T16:30:39;2.40;1.00
1476;DHT22;730;48.870;12.542;2023-02-26T16:33:13;2.50;1.00
1476;DHT22;730;48.870;12.542;2023-02-26T16:35:47;2.40;1.00
1476;DHT22;730;48.870;12.542;2023-02-26T16:38:27;2.30;1.00
1476;DHT22;730;48.870;12.542;2023-02-26T16:41:08;2.20;1.00
1476;DHT22;730;48.870;12.542;2023-02-26T16:46:15;2.00;1.00
1476;DHT22;730;48.870;12.542;2023-02-26T16:48:54;1.90;1.00
1476;DHT22;730;48.870;12.542;2023-02-26T16:51:23;1.90;1.00
1476;DHT22;730;48.870;12.542;2023-02-26T16:53:59;1.90;1.00
1476;DHT22;730;48.870;12.542;2023-02-26T16:56:31;1.90;1.00
1476;DHT22;730;48.870;12.542;2023-02-26T17:01:34;2.00;1.00
1476;DHT22;730;48.870;12.542;2023-02-26T17:04:02;1.90;1.00
1476;DHT22;730;48.870;12.542;2023-02-26T17:06:29;1.90;1.00
1476;DHT22;730;48.870;12.542;2023-02-26T17:08:57;1.70;1.00
1476;DHT22;730;48.870;12.542;2023-02-26T17:11:30;1.80;1.00
1476;DHT22;730;48.870;12.542;2023-02-26T17:14:23;1.90;1.00
1476;DHT22;730;48.870;12.542;2023-02-26T17:16:51;1.90;1.00
1476;DHT22;730;48.870;12.542;2023-02-26T17:19:18;2.00;1.00
1476;DHT22;730;48.870;12.542;2023-02-26T17:21:47;1.90;1.00
1476;DHT22;730;48.870;12.542;2023-02-26T17:24:17;2.00;1.00
1476;DHT22;730;48.870;12.542;2023-02-26T17:26:44;2.10;1.00
1476;DHT22;730;48.870;12.542;2023-02-26T17:29:17;2.00;1.00
1476;DHT22;730;48.870;12.542;2023-02-26T17:31:44;2.00;1.00
1476;DHT22;730;48.870;12.542;2023-02-26T17:34:11;2.00;1.00
1476;DHT22;730;48.870;12.542;2023-02-26T17:36:44;2.00;1.00
1476;DHT22;730;48.870;12.542;2023-02-26T17:39:13;2.00;1.00
1476;DHT22;730;48.870;12.542;2023-02-26T17:41:42;1.80;1.00
1476;DHT22;730;48.870;12.542;2023-02-26T17:44:08;1.70;1.00
1476;DHT22;730;48.870;12.542;2023-02-26T17:46:34;1.50;1.00
1476;DHT22;730;48.870;12.542;2023-02-26T17:49:00;1.40;1.00
1476;DHT22;730;48.870;12.542;2023-02-26T17:51:26;1.30;1.00
1476;DHT22;730;48.870;12.542;2023-02-26T17:53:52;1.30;1.00
1476;DHT22;730;48.870;12.542;2023-02-26T17:56:30;1.30;1.00
1476;DHT22;730;48.870;12.542;2023-02-26T17:58:59;1.30;1.00
1476;DHT22;730;48.870;12.542;2023-02-26T18:01:26;1.30;1.00
1476;DHT22;730;48.870;12.542;2023-02-26T18:03:53;1.30;1.00
1476;DHT22;730;48.870;12.542;2023-02-26T18:06:20;1.40;1.00
1476;DHT22;730;48.870;12.542;2023-02-26T18:08:47;1.40;1.00
1476;DHT22;730;48.870;12.542;2023-02-26T18:11:15;1.40;1.00
1476;DHT22;730;48.870;12.542;2023-02-26T18:13:41;1.30;1.00
1476;DHT22;730;48.870;12.542;2023-02-26T18:16:19;1.30;1.00
1476;DHT22;730;48.870;12.542;2023-02-26T18:18:46;1.30;1.00
1476;DHT22;730;48.870;12.542;2023-02-26T18:21:12;1.30;1.00
1476;DHT22;730;48.870;12.542;2023-02-26T18:23:39;1.30;1.00
1476;DHT22;730;48.870;12.542;2023-02-26T18:26:06;1.20;1.00
1476;DHT22;730;48.870;12.542;2023-02-26T18:28:32;1.20;1.00
1476;DHT22;730;48.870;12.542;2023-02-26T18:30:58;1.10;1.00
1476;DHT22;730;48.870;12.542;2023-02-26T18:33:24;1.10;1.00
1476;DHT22;730;48.870;12.542;2023-02-26T18:35:53;1.20;1.00
1476;DHT22;730;48.870;12.542;2023-02-26T18:38:23;1.30;1.00
1476;DHT22;730;48.870;12.542;2023-02-26T18:40:50;1.40;1.00
1476;DHT22;730;48.870;12.542;2023-02-26T18:43:17;1.30;1.00
1476;DHT22;730;48.870;12.542;2023-02-26T18:45:44;1.40;1.00
1476;DHT22;730;48.870;12.542;2023-02-26T18:48:13;1.40;1.00
1476;DHT22;730;48.870;12.542;2023-02-26T18:50:41;1.30;1.00
1476;DHT22;730;48.870;12.542;2023-02-26T18:53:08;1.20;1.00
1476;DHT22;730;48.870;12.542;2023-02-26T18:55:38;1.20;1.00
1476;DHT22;730;48.870;12.542;2023-02-26T18:58:04;1.10;1.00
1476;DHT22;730;48.870;12.542;2023-02-26T19:00:30;1.10;1.00
1476;DHT22;730;48.870;12.542;2023-02-26T19:02:57;1.10;1.00
1476;DHT22;730;48.870;12.542;2023-02-26T19:05:23;1.10;1.00
1476;DHT22;730;48.870;12.542;2023-02-26T19:07:52;1.10;1.00
1476;DHT22;730;48.870;12.542;2023-02-26T19:10:18;1.10;1.00
1476;DHT22;730;48.870;12.542;2023-02-26T19:12:45;1.00;1.00
1476;DHT22;730;48.870;12.542;2023-02-26T19:15:12;1.00;1.00
1476;DHT22;730;48.870;12.542;2023-02-26T19:17:41;1.10;1.00
1476;DHT22;730;48.870;12.542;2023-02-26T19:20:08;1.10;1.00
1476;DHT22;730;48.870;12.542;2023-02-26T19:22:34;1.10;1.00
1476;DHT22;730;48.870;12.542;2023-02-26T19:25:00;1.10;1.00
1476;DHT22;730;48.870;12.542;2023-02-26T19:27:26;1.00;1.00
1476;DHT22;730;48.870;12.542;2023-02-26T19:29:53;1.00;1.00
1476;DHT22;730;48.870;12.542;2023-02-26T19:32:19;1.10;1.00
1476;DHT22;730;48.870;12.542;2023-02-26T19:34:45;1.10;1.00
1476;DHT22;730;48.870;12.542;2023-02-26T19:37:11;1.10;1.00
1476;DHT22;730;48.870;12.542;2023-02-26T19:39:37;1.10;1.00
1476;DHT22;730;48.870;12.542;2023-02-26T19:42:05;1.00;1.00
1476;DHT22;730;48.870;12.542;2023-02-26T19:44:31;1.10;1.00
1476;DHT22;730;48.870;12.542;2023-02-26T19:46:58;1.10;1.00
1476;DHT22;730;48.870;12.542;2023-02-26T19:49:24;1.10;1.00
1476;DHT22;730;48.870;12.542;2023-02-26T19:51:50;1.30;1.00
1476;DHT22;730;48.870;12.542;2023-02-26T19:54:17;1.30;1.00
1476;DHT22;730;48.870;12.542;2023-02-26T19:56:44;1.30;1.00
1476;DHT22;730;48.870;12.542;2023-02-26T19:59:11;1.20;1.00